»·PEaware :: N416JK KMRY-KPVF

N416JK :: KMRY-KPVF

FLIGHT INFORMATION

Flight Status: Arrived
Operator: Privately registered:
United States
More flights under this callsign
Pilot: John K. (4202)
Aircraft: PIPER PA-32 SARATOGA
(PA32)
More flights by this aircraft type
Origin: KMRY Monterey Peninsula
United States
Destination: KPVF Placerville
United States
More flights between these airports :: More routes between these airports
Route: +MRY5 SHOEY SNS V111 MOD V113 LIN V338 MUREQ
File this flight plan on PilotEdge
Remarks:
Altitude:
(Current/Filed)
7,000ft
Speed:
(Current/Filed)
150kts
Departed: 10-Apr-20 08:27 AM
Arrived: 10-Apr-20 09:34 AM
Distance/Time
Traveled:
138nm/1:07
Distance/Time
To Go:
Arrived

Flight Plot

Page will automatically refresh every two minutes.

Flight plan parsing failed; only flown route is shown


Map Options




Map Legend


Flown Route
Filed Route
Departure Airport
Arrival Airport
Navaid (VOR, NDB)
Fix

Horizontal Profiles

Position Reports

Time Latitude Longitude Heading Altitude Ground
Speed
10-Apr-20 08:16 36.588814 -121.856966 0 259ft 0kts
10-Apr-20 08:17 36.588814 -121.856966 0 259ft 0kts
10-Apr-20 08:18 36.588814 -121.856966 0 259ft 0kts
10-Apr-20 08:19 36.588814 -121.856966 0 259ft 0kts
10-Apr-20 08:20 36.588814 -121.856966 0 259ft 0kts
10-Apr-20 08:21 36.588814 -121.856966 0 259ft 0kts
10-Apr-20 08:22 36.588814 -121.856966 0 259ft 0kts
10-Apr-20 08:23 36.588814 -121.856966 0 259ft 0kts
10-Apr-20 08:23 36.588814 -121.856966 0 259ft 0kts
10-Apr-20 08:25 36.590274 -121.857040 41 259ft 0kts
10-Apr-20 08:25 36.590765 -121.856638 50 259ft 17kts
10-Apr-20 08:27 36.585006 -121.831411 77 1078ft 87kts
10-Apr-20 08:28 36.609720 -121.836000 335 2002ft 115kts
10-Apr-20 08:28 36.632227 -121.847961 344 2844ft 118kts
10-Apr-20 08:30 36.657450 -121.832240 86 3867ft 114kts
10-Apr-20 08:30 36.658491 -121.799600 86 4612ft 115kts
10-Apr-20 08:31 36.659595 -121.760146 85 5506ft 116kts
10-Apr-20 08:32 36.660708 -121.720666 85 6398ft 115kts
10-Apr-20 08:34 36.661986 -121.673194 85 6994ft 132kts
10-Apr-20 08:34 36.663063 -121.632361 85 6993ft 154kts
10-Apr-20 08:35 36.682442 -121.592462 31 6992ft 160kts
10-Apr-20 08:36 36.720355 -121.566167 29 6991ft 161kts
10-Apr-20 08:37 36.756210 -121.542191 28 7001ft 162kts
10-Apr-20 08:38 36.793861 -121.517205 28 7009ft 163kts
10-Apr-20 08:40 36.835750 -121.489434 28 7009ft 164kts
10-Apr-20 08:40 36.867987 -121.468022 28 7009ft 165kts
10-Apr-20 08:41 36.903670 -121.444304 28 7009ft 164kts
10-Apr-20 08:42 36.943269 -121.417956 28 7009ft 164kts
10-Apr-20 08:43 36.982765 -121.391626 28 7009ft 164kts
10-Apr-20 08:44 37.022650 -121.365032 28 7008ft 164kts
10-Apr-20 08:45 37.062352 -121.338527 28 7008ft 164kts
10-Apr-20 08:46 37.102094 -121.311923 28 7001ft 164kts
10-Apr-20 08:47 37.141940 -121.285263 28 6999ft 164kts
10-Apr-20 08:48 37.182034 -121.258385 28 6999ft 164kts
10-Apr-20 08:49 37.221919 -121.231605 27 6999ft 165kts
10-Apr-20 08:50 37.261943 -121.204727 27 6988ft 166kts
10-Apr-20 08:51 37.302092 -121.177704 27 6980ft 165kts
10-Apr-20 08:52 37.342505 -121.150505 27 6980ft 165kts
10-Apr-20 08:53 37.382456 -121.123572 27 6980ft 165kts
10-Apr-20 08:54 37.422292 -121.096671 27 6996ft 164kts
10-Apr-20 08:55 37.462040 -121.069796 27 6998ft 164kts
10-Apr-20 08:56 37.502297 -121.042562 27 6998ft 164kts
10-Apr-20 08:57 37.541981 -121.015657 27 6998ft 165kts
10-Apr-20 08:58 37.580803 -120.989298 27 7000ft 165kts
10-Apr-20 08:59 37.620647 -120.962257 27 7000ft 165kts
10-Apr-20 09:00 37.666257 -120.961958 356 7000ft 166kts
10-Apr-20 09:01 37.711843 -120.966436 356 7000ft 166kts
10-Apr-20 09:02 37.756632 -120.970996 356 7000ft 166kts
10-Apr-20 09:03 37.802152 -120.975654 356 7000ft 166kts
10-Apr-20 09:04 37.848283 -120.980424 356 6999ft 166kts
10-Apr-20 09:05 37.894014 -120.985142 356 6999ft 167kts
10-Apr-20 09:06 37.939843 -120.989888 356 6999ft 167kts
10-Apr-20 09:07 37.985547 -120.994594 355 6990ft 167kts
10-Apr-20 09:08 38.031204 -120.999326 355 6990ft 166kts
10-Apr-20 09:09 38.077227 -121.002443 14 6987ft 166kts
10-Apr-20 09:10 38.120765 -120.985827 16 6990ft 166kts
10-Apr-20 09:11 38.164158 -120.968971 16 6982ft 166kts
10-Apr-20 09:12 38.208436 -120.951719 16 6745ft 177kts
10-Apr-20 09:13 38.256670 -120.932870 16 6141ft 179kts
10-Apr-20 09:14 38.297919 -120.916815 16 5527ft 141kts
10-Apr-20 09:15 38.330948 -120.903932 16 5285ft 106kts
10-Apr-20 09:16 38.357398 -120.893734 16 5087ft 91kts
10-Apr-20 09:17 38.379895 -120.885051 16 5099ft 100kts
10-Apr-20 09:18 38.412191 -120.872370 16 5091ft 136kts
10-Apr-20 09:19 38.449163 -120.857868 16 5090ft 143kts
10-Apr-20 09:20 38.484892 -120.859023 303 5094ft 150kts
10-Apr-20 09:21 38.499289 -120.908262 291 5089ft 145kts
10-Apr-20 09:22 38.510906 -120.956073 290 5089ft 142kts
10-Apr-20 09:23 38.537222 -120.985775 356 4492ft 153kts
10-Apr-20 09:24 38.578894 -120.986906 0 4000ft 144kts
10-Apr-20 09:25 38.615218 -120.987266 1 3999ft 119kts
10-Apr-20 09:26 38.637812 -120.966549 57 3997ft 99kts
10-Apr-20 09:27 38.650138 -120.937503 57 4000ft 92kts
10-Apr-20 09:28 38.661848 -120.908722 57 4002ft 95kts
10-Apr-20 09:29 38.674866 -120.876440 58 4001ft 106kts
10-Apr-20 09:30 38.688458 -120.842510 58 3950ft 113kts
10-Apr-20 09:31 38.703476 -120.805021 59 3388ft 112kts
10-Apr-20 09:32 38.715889 -120.774107 58 2849ft 91kts
10-Apr-20 09:33 38.724017 -120.753778 332 2588ft 0kts
10-Apr-20 09:34 38.724378 -120.754978 145 2588ft 0kts

Navigation Log

Ident Type
Flight plan parsing failed, navigation log unavailable